^^
Your Local Weather - Clay, NY Station Historical Data
Daily Summary for January 27, 2017 Units:  Metric    English   Both
« Previous Day
Next Day »
Daily Weekly Monthly Yearly Custom
  High: Low: Average:
Temperature: 2.4 °C 0 °C 1.2 °C
Dew Point: -0.8 °C -5.8 °C -4.3 °C
Humidity: 83% 57% 67%
Wind Speed: 12.9km/h 4.8km/h 8.9km/h
Wind Gust: 38.6km/h - -
Wind- - West
Pressure: 1001.6 hPa 998.5 hPa -
Precipitation: 0 mm    
Historical Graphs
 
 
Tabular Data for January 27, 2017
Time Temperature Dew Point Pressure Wind Wind Speed Wind Gust Humidity Rainfall Rate (Hourly) solar
00:04 2.3 °C -0.8 °C 998.5 hPa WNW 8 km/h 11.3 km/h 80% 0 mm 0 W/m2
00:10 2.4 °C -0.9 °C 998.5 hPa WNW 8 km/h 8 km/h 79% 0 mm 0 W/m2
00:16 2.3 °C -0.9 °C 998.5 hPa WNW 6.4 km/h 14.5 km/h 79% 0 mm 0 W/m2
00:22 2.4 °C -0.9 °C 998.5 hPa WNW 8 km/h 9.7 km/h 79% 0 mm 0 W/m2
00:28 2.3 °C -0.9 °C 998.5 hPa NW 6.4 km/h 9.7 km/h 79% 0 mm 0 W/m2
00:34 2.3 °C -1.1 °C 998.5 hPa WNW 9.7 km/h 12.9 km/h 78% 0 mm 0 W/m2
00:40 2.4 °C -1.1 °C 998.5 hPa West 9.7 km/h 14.5 km/h 78% 0 mm 0 W/m2
00:46 2.4 °C -1.1 °C 998.5 hPa West 8 km/h 14.5 km/h 78% 0 mm 0 W/m2
00:55 2.3 °C -1.1 °C 998.5 hPa West 8 km/h 9.7 km/h 78% 0 mm 0 W/m2
01:02 2.3 °C -1.1 °C 998.9 hPa West 8 km/h 9.7 km/h 78% 0 mm 0 W/m2
01:08 2.3 °C -1.2 °C 998.9 hPa WSW 9.7 km/h 11.3 km/h 78% 0 mm 0 W/m2
01:18 1.9 °C -1 °C 998.9 hPa West 6.4 km/h 16.1 km/h 81% 0 mm 0 W/m2
01:24 1.8 °C -0.9 °C 998.9 hPa WNW 8 km/h 12.9 km/h 82% 0 mm 0 W/m2
01:30 1.7 °C -1 °C 998.9 hPa SW 8 km/h 8 km/h 82% 0 mm 0 W/m2
01:35 1.7 °C -1 °C 998.9 hPa West 6.4 km/h 11.3 km/h 82% 0 mm 0 W/m2
01:42 1.8 °C -1.1 °C 998.9 hPa West 6.4 km/h 6.4 km/h 81% 0 mm 0 W/m2
01:48 2 °C -1.1 °C 998.9 hPa WSW 8 km/h 17.7 km/h 80% 0 mm 0 W/m2
01:54 2.1 °C -1.2 °C 999.2 hPa West 8 km/h 8 km/h 79% 0 mm 0 W/m2
02:00 2.1 °C -1.3 °C 999.2 hPa West 6.4 km/h 12.9 km/h 78% 0 mm 0 W/m2
02:06 2.2 °C -1.2 °C 999.5 hPa WNW 9.7 km/h 19.3 km/h 78% 0 mm 0 W/m2
02:12 2.2 °C -1.4 °C 999.5 hPa WNW 8 km/h 12.9 km/h 77% 0 mm 0 W/m2
02:18 2.2 °C -1.4 °C 999.5 hPa West 6.4 km/h 12.9 km/h 77% 0 mm 0 W/m2
02:24 2.2 °C -1.4 °C 999.5 hPa SW 8 km/h 11.3 km/h 77% 0 mm 0 W/m2
02:30 2.2 °C -1.6 °C 999.5 hPa NW 9.7 km/h 9.7 km/h 76% 0 mm 0 W/m2
02:36 2.2 °C -1.6 °C 999.5 hPa West 9.7 km/h 14.5 km/h 76% 0 mm 0 W/m2
02:42 2.2 °C -1.8 °C 999.5 hPa West 8 km/h 11.3 km/h 75% 0 mm 0 W/m2
02:48 2.2 °C -1.8 °C 999.5 hPa West 9.7 km/h 11.3 km/h 75% 0 mm 0 W/m2
02:54 2.1 °C -1.9 °C 999.5 hPa WSW 9.7 km/h 16.1 km/h 75% 0 mm 0 W/m2
03:00 1.7 °C -1.6 °C 999.9 hPa WNW 9.7 km/h 17.7 km/h 79% 0 mm 0 W/m2
03:06 0.7 °C -2 °C 999.9 hPa West 11.3 km/h 22.5 km/h 82% 0 mm 0 W/m2
03:12 0.5 °C -2.1 °C 999.9 hPa WSW 11.3 km/h 20.9 km/h 83% 0 mm 0 W/m2
03:18 0.9 °C -2.3 °C 999.5 hPa WSW 12.9 km/h 20.9 km/h 79% 0 mm 0 W/m2
03:24 1 °C -2.4 °C 999.5 hPa NW 12.9 km/h 17.7 km/h 78% 0 mm 0 W/m2
03:30 1 °C -2.6 °C 999.5 hPa West 9.7 km/h 12.9 km/h 77% 0 mm 0 W/m2
03:36 1.1 °C -2.7 °C 999.9 hPa WSW 9.7 km/h 38.6 km/h 76% 0 mm 0 W/m2
03:42 1.1 °C -2.7 °C 999.5 hPa West 9.7 km/h 9.7 km/h 76% 0 mm 0 W/m2
03:48 1.1 °C -3 °C 999.5 hPa NNW 8 km/h 9.7 km/h 74% 0 mm 0 W/m2
03:54 1.3 °C -3.4 °C 999.5 hPa WSW 9.7 km/h 9.7 km/h 71% 0 mm 0 W/m2
04:00 1.4 °C -4.1 °C 999.5 hPa West 9.7 km/h 9.7 km/h 67% 0 mm 0 W/m2
04:06 1.4 °C -4 °C 999.5 hPa West 11.3 km/h 12.9 km/h 67% 0 mm 0 W/m2
04:12 1.4 °C -3.9 °C 999.5 hPa WNW 9.7 km/h 9.7 km/h 68% 0 mm 0 W/m2
04:18 1.3 °C -3.6 °C 999.5 hPa NW 8 km/h 8 km/h 70% 0 mm 0 W/m2
04:24 1.3 °C -3.6 °C 999.5 hPa West 9.7 km/h 11.3 km/h 70% 0 mm 0 W/m2
04:30 1.3 °C -3.4 °C 999.5 hPa WSW 8 km/h 9.7 km/h 71% 0 mm 0 W/m2
04:35 1.3 °C -3.4 °C 999.5 hPa NW 8 km/h 11.3 km/h 71% 0 mm 0 W/m2
04:42 1.3 °C -3.6 °C 999.5 hPa West 8 km/h 14.5 km/h 70% 0 mm 0 W/m2
04:48 1.3 °C -3.6 °C 999.5 hPa West 11.3 km/h 17.7 km/h 70% 0 mm 0 W/m2
04:53 1.3 °C -3.6 °C 999.5 hPa WNW 12.9 km/h 17.7 km/h 70% 0 mm 0 W/m2
05:00 1.3 °C -3.7 °C 999.9 hPa SW 11.3 km/h 11.3 km/h 69% 0 mm 0 W/m2
05:06 1.3 °C -3.4 °C 999.9 hPa West 9.7 km/h 17.7 km/h 71% 0 mm 0 W/m2
05:12 1.2 °C -3.3 °C 999.9 hPa WNW 11.3 km/h 11.3 km/h 72% 0 mm 0 W/m2
05:18 1.2 °C -3.3 °C 999.9 hPa West 11.3 km/h 24.1 km/h 72% 0 mm 0 W/m2
05:24 1.1 °C -3.2 °C 999.9 hPa West 11.3 km/h 16.1 km/h 73% 0 mm 0 W/m2
05:29 1.1 °C -3.2 °C 1000.2 hPa West 9.7 km/h 20.9 km/h 73% 0 mm 0 W/m2
05:36 1.1 °C -3.2 °C 999.9 hPa WNW 12.9 km/h 24.1 km/h 73% 0 mm 0 W/m2
05:42 1 °C -3.1 °C 999.9 hPa West 9.7 km/h 11.3 km/h 74% 0 mm 0 W/m2
05:48 0.9 °C -2.9 °C 1000.2 hPa SSW 8 km/h 11.3 km/h 76% 0 mm 0 W/m2
05:53 0.8 °C -2.9 °C 1000.2 hPa WSW 8 km/h 22.5 km/h 76% 0 mm 0 W/m2
05:59 0.8 °C -2.9 °C 1000.2 hPa WNW 11.3 km/h 11.3 km/h 76% 0 mm 0 W/m2
06:06 0.8 °C -2.8 °C 1000.6 hPa WSW 9.7 km/h 11.3 km/h 77% 0 mm 0 W/m2
06:12 0.7 °C -2.8 °C 1000.6 hPa West 9.7 km/h 9.7 km/h 77% 0 mm 0 W/m2
06:18 0.7 °C -3.1 °C 1000.6 hPa WSW 9.7 km/h 9.7 km/h 76% 0 mm 0 W/m2
06:24 0.7 °C -3.1 °C 1000.6 hPa WSW 8 km/h 11.3 km/h 76% 0 mm 0 W/m2
06:29 0.8 °C -3.5 °C 1000.6 hPa WSW 9.7 km/h 22.5 km/h 73% 0 mm 0 W/m2
06:36 0.8 °C -4.1 °C 1000.6 hPa WNW 9.7 km/h 22.5 km/h 70% 0 mm 0 W/m2
06:42 0.8 °C -5 °C 1000.6 hPa SW 9.7 km/h 17.7 km/h 65% 0 mm 0 W/m2
06:48 0.8 °C -5.2 °C 1000.9 hPa SW 11.3 km/h 17.7 km/h 64% 0 mm 0 W/m2
06:53 0.8 °C -5.3 °C 1000.9 hPa WNW 11.3 km/h 11.3 km/h 64% 0 mm 0 W/m2
07:05 0.7 °C -5.2 °C 1000.9 hPa WNW 8 km/h 19.3 km/h 65% 0 mm 0 W/m2
07:12 0.6 °C -5.6 °C 1000.9 hPa WSW 9.7 km/h 20.9 km/h 63% 0 mm 0 W/m2
07:18 0.7 °C -5.4 °C 1000.9 hPa WSW 11.3 km/h 20.9 km/h 64% 0 mm 0 W/m2
07:24 0.7 °C -5.6 °C 1000.9 hPa NW 9.7 km/h 16.1 km/h 63% 0 mm 0 W/m2
07:30 0.7 °C -5.6 °C 1001.2 hPa NNW 11.3 km/h 14.5 km/h 63% 0 mm 0 W/m2
07:36 0.7 °C -5.8 °C 1001.2 hPa WSW 9.7 km/h 14.5 km/h 62% 0 mm 0 W/m2
07:42 0.7 °C -5.8 °C 1001.2 hPa WSW 9.7 km/h 17.7 km/h 62% 0 mm 5 W/m2
07:48 0.7 °C -5.8 °C 1001.2 hPa West 11.3 km/h 17.7 km/h 62% 0 mm 9 W/m2
07:54 0.7 °C -5.8 °C 1001.2 hPa West 9.7 km/h 17.7 km/h 62% 0 mm 12 W/m2
08:08 0.6 °C -5.6 °C 1001.2 hPa West 8 km/h 22.5 km/h 63% 0 mm 19 W/m2
08:14 0.7 °C -5.6 °C 1001.2 hPa SW 9.7 km/h 12.9 km/h 63% 0 mm 21 W/m2
08:20 0.7 °C -5.6 °C 1001.2 hPa WSW 9.7 km/h 9.7 km/h 63% 0 mm 28 W/m2
08:26 0.7 °C -5.6 °C 1001.2 hPa WSW 11.3 km/h 14.5 km/h 63% 0 mm 32 W/m2
08:32 0.7 °C -5.6 °C 1001.2 hPa West 8 km/h 9.7 km/h 63% 0 mm 54 W/m2
08:38 0.7 °C -5.6 °C 1001.2 hPa West 9.7 km/h 14.5 km/h 63% 0 mm 58 W/m2
08:43 0.7 °C -5.5 °C 1001.2 hPa West 9.7 km/h 14.5 km/h 63% 0 mm 58 W/m2
08:50 0.8 °C -5.5 °C 1001.2 hPa West 11.3 km/h 11.3 km/h 63% 0 mm 79 W/m2
08:56 0.8 °C -5.5 °C 1001.2 hPa West 9.7 km/h 11.3 km/h 63% 0 mm 63 W/m2
09:02 0.7 °C -5.3 °C 1001.6 hPa West 8 km/h 12.9 km/h 64% 0 mm 69 W/m2
09:08 0.7 °C -5.5 °C 1001.2 hPa West 9.7 km/h 12.9 km/h 63% 0 mm 79 W/m2
09:14 0.8 °C -5.5 °C 1001.2 hPa WSW 11.3 km/h 16.1 km/h 63% 0 mm 69 W/m2
09:20 0.8 °C -5.7 °C 1001.2 hPa WSW 11.3 km/h 17.7 km/h 62% 0 mm 84 W/m2
09:26 0.8 °C -5.5 °C 1001.2 hPa WSW 9.7 km/h 17.7 km/h 63% 0 mm 128 W/m2
09:32 0.8 °C -5.6 °C 1001.6 hPa SW 9.7 km/h 24.1 km/h 62% 0 mm 109 W/m2
09:38 0.9 °C -5.6 °C 1001.2 hPa WNW 11.3 km/h 24.1 km/h 62% 0 mm 113 W/m2
09:44 0.9 °C -5.7 °C 1001.2 hPa WNW 9.7 km/h 16.1 km/h 61% 0 mm 130 W/m2
09:50 1 °C -5.5 °C 1001.2 hPa West 11.3 km/h 11.3 km/h 62% 0 mm 102 W/m2
09:55 1.1 °C -5.4 °C 1001.2 hPa West 8 km/h 11.3 km/h 62% 0 mm 123 W/m2
10:02 1.1 °C -5.6 °C 1001.2 hPa WSW 9.7 km/h 11.3 km/h 61% 0 mm 130 W/m2
10:08 1.2 °C -5.6 °C 1001.2 hPa SW 11.3 km/h 20.9 km/h 61% 0 mm 113 W/m2
10:14 1.2 °C -5.3 °C 1001.2 hPa WSW 9.7 km/h 11.3 km/h 62% 0 mm 123 W/m2
10:20 1.3 °C -5.4 °C 1001.2 hPa NW 8 km/h 11.3 km/h 61% 0 mm 93 W/m2
10:26 1.4 °C -5.3 °C 1001.2 hPa West 8 km/h 11.3 km/h 61% 0 mm 148 W/m2
10:32 1.4 °C -5.3 °C 1001.2 hPa WNW 9.7 km/h 17.7 km/h 61% 0 mm 97 W/m2
10:38 1.5 °C -5.4 °C 1001.2 hPa WNW 9.7 km/h 17.7 km/h 60% 0 mm 109 W/m2
10:43 1.5 °C -5.2 °C 1001.2 hPa WSW 8 km/h 12.9 km/h 61% 0 mm 81 W/m2
10:50 1.5 °C -5.7 °C 1001.2 hPa West 9.7 km/h 14.5 km/h 59% 0 mm 102 W/m2
10:56 1.6 °C -5.2 °C 1001.2 hPa WSW 8 km/h 14.5 km/h 61% 0 mm 91 W/m2
11:02 1.6 °C -5.3 °C 1000.9 hPa West 6.4 km/h 9.7 km/h 60% 0 mm 76 W/m2
11:08 1.6 °C -5.4 °C 1000.9 hPa West 9.7 km/h 14.5 km/h 60% 0 mm 65 W/m2
11:14 1.5 °C -5.7 °C 1000.9 hPa WSW 11.3 km/h 22.5 km/h 59% 0 mm 69 W/m2
11:19 1.6 °C -5.6 °C 1000.6 hPa West 9.7 km/h 9.7 km/h 59% 0 mm 97 W/m2
11:26 1.6 °C -5.6 °C 1000.6 hPa WNW 8 km/h 11.3 km/h 59% 0 mm 93 W/m2
11:32 1.7 °C -5.7 °C 1000.6 hPa West 6.4 km/h 11.3 km/h 58% 0 mm 81 W/m2
11:38 1.8 °C -5.6 °C 1000.6 hPa WNW 9.7 km/h 17.7 km/h 58% 0 mm 111 W/m2
11:44 1.8 °C -5.6 °C 1000.6 hPa West 8 km/h 11.3 km/h 58% 0 mm 123 W/m2
11:49 1.9 °C -5.7 °C 1000.6 hPa West 8 km/h 11.3 km/h 57% 0 mm 102 W/m2
11:56 1.9 °C -5.7 °C 1000.2 hPa WNW 9.7 km/h 14.5 km/h 57% 0 mm 97 W/m2
12:02 1.9 °C -5.7 °C 1000.2 hPa WNW 9.7 km/h 16.1 km/h 57% 0 mm 105 W/m2
12:08 1.8 °C -5.6 °C 1000.2 hPa WSW 11.3 km/h 16.1 km/h 58% 0 mm 97 W/m2
12:14 1.8 °C -5.6 °C 1000.2 hPa West 11.3 km/h 17.7 km/h 58% 0 mm 109 W/m2
12:20 1.8 °C -5.6 °C 999.9 hPa West 11.3 km/h 24.1 km/h 58% 0 mm 97 W/m2
12:25 1.7 °C -5.7 °C 999.9 hPa WNW 11.3 km/h 24.1 km/h 58% 0 mm 84 W/m2
12:32 1.7 °C -5.2 °C 999.5 hPa NW 9.7 km/h 11.3 km/h 60% 0 mm 100 W/m2
12:38 1.7 °C -5.2 °C 999.5 hPa West 8 km/h 22.5 km/h 60% 0 mm 93 W/m2
12:44 1.7 °C -5.5 °C 999.5 hPa WNW 9.7 km/h 11.3 km/h 59% 0 mm 81 W/m2
12:50 1.7 °C -5.3 °C 999.5 hPa NW 9.7 km/h 9.7 km/h 60% 0 mm 76 W/m2
12:55 1.7 °C -5.3 °C 999.5 hPa WNW 6.4 km/h 11.3 km/h 60% 0 mm 72 W/m2
13:02 1.7 °C -5.3 °C 999.5 hPa NW 8 km/h 8 km/h 60% 0 mm 69 W/m2
13:08 1.6 °C -5.3 °C 999.5 hPa WNW 9.7 km/h 12.9 km/h 60% 0 mm 70 W/m2
13:14 1.6 °C -5.3 °C 999.5 hPa WSW 8 km/h 11.3 km/h 60% 0 mm 65 W/m2
13:19 1.6 °C -5.1 °C 999.2 hPa NW 6.4 km/h 6.4 km/h 61% 0 mm 81 W/m2
13:26 1.7 °C -5.3 °C 999.2 hPa WNW 8 km/h 11.3 km/h 60% 0 mm 62 W/m2
13:32 1.7 °C -5.4 °C 999.2 hPa West 8 km/h 11.3 km/h 59% 0 mm 54 W/m2
13:38 1.7 °C -5.7 °C 999.2 hPa West 8 km/h 19.3 km/h 58% 0 mm 47 W/m2
13:44 1.7 °C -5.7 °C 999.2 hPa West 9.7 km/h 11.3 km/h 58% 0 mm 51 W/m2
13:50 1.8 °C -5.6 °C 999.2 hPa WNW 8 km/h 8 km/h 58% 0 mm 62 W/m2
13:55 1.8 °C -5.8 °C 999.2 hPa West 9.7 km/h 9.7 km/h 57% 0 mm 84 W/m2
14:02 1.9 °C -5.5 °C 998.9 hPa WNW 9.7 km/h 12.9 km/h 58% 0 mm 77 W/m2
14:08 1.9 °C -5.7 °C 999.2 hPa West 8 km/h 12.9 km/h 57% 0 mm 67 W/m2
14:14 1.9 °C -5.7 °C 999.2 hPa West 9.7 km/h 24.1 km/h 57% 0 mm 56 W/m2
14:20 1.8 °C -5.8 °C 998.9 hPa SW 11.3 km/h 14.5 km/h 57% 0 mm 46 W/m2
14:26 1.8 °C -5.4 °C 998.9 hPa West 9.7 km/h 14.5 km/h 59% 0 mm 51 W/m2
14:32 1.7 °C -5.4 °C 999.2 hPa West 8 km/h 12.9 km/h 59% 0 mm 40 W/m2
14:38 1.7 °C -5.3 °C 999.2 hPa West 8 km/h 16.1 km/h 60% 0 mm 58 W/m2
14:44 1.6 °C -5.3 °C 999.2 hPa West 8 km/h 8 km/h 60% 0 mm 42 W/m2
14:50 1.6 °C -5.6 °C 999.2 hPa WNW 9.7 km/h 11.3 km/h 59% 0 mm 40 W/m2
14:56 1.6 °C -5.4 °C 999.2 hPa WSW 11.3 km/h 11.3 km/h 60% 0 mm 44 W/m2
15:02 1.6 °C -5.6 °C 999.2 hPa WNW 8 km/h 9.7 km/h 59% 0 mm 42 W/m2
15:08 1.6 °C -5.3 °C 999.2 hPa West 8 km/h 9.7 km/h 60% 0 mm 35 W/m2
15:13 1.6 °C -5.6 °C 999.2 hPa West 11.3 km/h 25.7 km/h 59% 0 mm 47 W/m2
15:20 1.6 °C -5.3 °C 999.2 hPa West 11.3 km/h 11.3 km/h 60% 0 mm 44 W/m2
15:26 1.6 °C -5.1 °C 999.2 hPa WNW 8 km/h 11.3 km/h 61% 0 mm 35 W/m2
15:32 1.6 °C -5.3 °C 999.5 hPa WNW 8 km/h 8 km/h 60% 0 mm 26 W/m2
15:38 1.6 °C -5.4 °C 999.5 hPa WSW 8 km/h 25.7 km/h 60% 0 mm 21 W/m2
15:43 1.5 °C -5.2 °C 999.5 hPa West 8 km/h 8 km/h 61% 0 mm 18 W/m2
15:49 1.5 °C -5 °C 999.5 hPa NW 9.7 km/h 9.7 km/h 62% 0 mm 19 W/m2
15:56 1.4 °C -5.1 °C 999.5 hPa WNW 9.7 km/h 9.7 km/h 62% 0 mm 18 W/m2
16:02 1.4 °C -4.9 °C 999.5 hPa SW 9.7 km/h 12.9 km/h 63% 0 mm 16 W/m2
16:08 1.3 °C -4.7 °C 999.5 hPa WNW 8 km/h 12.9 km/h 64% 0 mm 12 W/m2
16:14 1.3 °C -4.6 °C 999.5 hPa WNW 8 km/h 24.1 km/h 65% 0 mm 11 W/m2
16:20 1.2 °C -4.4 °C 999.5 hPa WNW 9.7 km/h 9.7 km/h 66% 0 mm 11 W/m2
16:26 1.2 °C -4.5 °C 999.5 hPa West 6.4 km/h 9.7 km/h 66% 0 mm 9 W/m2
16:32 1.2 °C -4.5 °C 999.5 hPa West 6.4 km/h 6.4 km/h 66% 0 mm 11 W/m2
16:38 1.2 °C -4.6 °C 999.5 hPa NW 8 km/h 16.1 km/h 65% 0 mm 11 W/m2
16:43 1.2 °C -4.6 °C 999.5 hPa West 9.7 km/h 14.5 km/h 65% 0 mm 5 W/m2
16:49 1.2 °C -4.8 °C 999.5 hPa West 8 km/h 8 km/h 64% 0 mm 5 W/m2
16:56 1.2 °C -4.8 °C 999.5 hPa West 9.7 km/h 9.7 km/h 64% 0 mm 0 W/m2
17:02 1.2 °C -4.8 °C 999.9 hPa West 8 km/h 8 km/h 64% 0 mm 0 W/m2
17:08 1.2 °C -4.8 °C 999.5 hPa SW 8 km/h 14.5 km/h 64% 0 mm 0 W/m2
17:13 1.2 °C -4.8 °C 999.9 hPa West 9.7 km/h 11.3 km/h 64% 0 mm 0 W/m2
17:19 1.2 °C -4.8 °C 999.5 hPa WNW 9.7 km/h 9.7 km/h 64% 0 mm 0 W/m2
17:26 1.3 °C -4.8 °C 999.5 hPa West 11.3 km/h 24.1 km/h 64% 0 mm 0 W/m2
17:32 1.2 °C -4.8 °C 999.9 hPa West 11.3 km/h 11.3 km/h 64% 0 mm 0 W/m2
17:38 1.2 °C -4.9 °C 999.9 hPa WNW 8 km/h 17.7 km/h 64% 0 mm 0 W/m2
17:50 1.1 °C -4.7 °C 999.9 hPa SW 8 km/h 8 km/h 65% 0 mm 0 W/m2
17:56 1.1 °C -4.4 °C 999.9 hPa WNW 9.7 km/h 12.9 km/h 67% 0 mm 0 W/m2
17:58 1.1 °C -4.4 °C 999.9 hPa NW 8 km/h 12.9 km/h 67% 0 mm 0 W/m2
18:00 1 °C -4.4 °C 999.9 hPa WNW 8 km/h 12.9 km/h 67% 0 mm 0 W/m2
18:02 0.9 °C -4.3 °C 999.9 hPa West 8 km/h 12.9 km/h 68% 0 mm 0 W/m2
18:08 0.9 °C -4.3 °C 999.9 hPa WSW 9.7 km/h 12.9 km/h 68% 0 mm 0 W/m2
18:13 0.9 °C -4.3 °C 999.9 hPa WSW 9.7 km/h 19.3 km/h 68% 0 mm 0 W/m2
18:19 0.8 °C -4.4 °C 1000.2 hPa SSW 9.7 km/h 20.9 km/h 68% 0 mm 0 W/m2
18:26 0.8 °C -4.4 °C 1000.2 hPa WSW 8 km/h 20.9 km/h 68% 0 mm 0 W/m2
18:32 0.8 °C -4.4 °C 1000.2 hPa West 8 km/h 9.7 km/h 68% 0 mm 0 W/m2
18:38 0.8 °C -4.4 °C 999.9 hPa WNW 11.3 km/h 12.9 km/h 68% 0 mm 0 W/m2
18:43 0.8 °C -4.3 °C 999.9 hPa WSW 11.3 km/h 12.9 km/h 69% 0 mm 0 W/m2
18:49 0.7 °C -4.2 °C 999.9 hPa West 8 km/h 8 km/h 70% 0 mm 0 W/m2
18:56 0.6 °C -4.2 °C 999.9 hPa WNW 6.4 km/h 8 km/h 70% 0 mm 0 W/m2
19:02 0.7 °C -4.2 °C 999.9 hPa WSW 6.4 km/h 11.3 km/h 70% 0 mm 0 W/m2
19:08 0.6 °C -4.2 °C 1000.2 hPa West 6.4 km/h 12.9 km/h 70% 0 mm 0 W/m2
19:14 0.6 °C -4.1 °C 1000.2 hPa West 6.4 km/h 8 km/h 71% 0 mm 0 W/m2
19:20 0.6 °C -4.1 °C 1000.2 hPa WNW 6.4 km/h 11.3 km/h 71% 0 mm 0 W/m2
19:25 0.6 °C -4.1 °C 1000.2 hPa West 8 km/h 11.3 km/h 71% 0 mm 0 W/m2
19:32 0.6 °C -4.3 °C 1000.2 hPa WSW 6.4 km/h 8 km/h 70% 0 mm 0 W/m2
19:38 0.6 °C -4.3 °C 1000.2 hPa WSW 6.4 km/h 12.9 km/h 70% 0 mm 0 W/m2
19:44 0.6 °C -4.3 °C 1000.2 hPa WNW 6.4 km/h 9.7 km/h 70% 0 mm 0 W/m2
19:50 0.6 °C -4.3 °C 1000.2 hPa West 6.4 km/h 8 km/h 70% 0 mm 0 W/m2
19:55 0.6 °C -4.3 °C 1000.2 hPa West 6.4 km/h 16.1 km/h 70% 0 mm 0 W/m2
20:02 0.6 °C -4.3 °C 1000.2 hPa WNW 6.4 km/h 8 km/h 70% 0 mm 0 W/m2
20:09 0.6 °C -4.4 °C 1000.2 hPa NW 8 km/h 8 km/h 69% 0 mm 0 W/m2
20:16 0.6 °C -4.4 °C 1000.6 hPa WNW 8 km/h 9.7 km/h 69% 0 mm 0 W/m2
20:22 0.6 °C -4.5 °C 1000.6 hPa West 6.4 km/h 8 km/h 69% 0 mm 0 W/m2
20:30 0.6 °C -4.5 °C 1000.6 hPa WSW 8 km/h 12.9 km/h 69% 0 mm 0 W/m2
20:35 0.6 °C -4.5 °C 1000.6 hPa West 8 km/h 16.1 km/h 69% 0 mm 0 W/m2
20:42 0.5 °C -4.7 °C 1000.6 hPa West 8 km/h 9.7 km/h 68% 0 mm 0 W/m2
20:48 0.4 °C -4.6 °C 1000.6 hPa West 9.7 km/h 9.7 km/h 69% 0 mm 0 W/m2
20:54 0.4 °C -4.7 °C 1000.6 hPa West 8 km/h 9.7 km/h 69% 0 mm 0 W/m2
21:00 0.4 °C -4.6 °C 1000.6 hPa WNW 8 km/h 8 km/h 69% 0 mm 0 W/m2
21:06 0.4 °C -4.6 °C 1000.6 hPa West 8 km/h 9.7 km/h 69% 0 mm 0 W/m2
21:12 0.4 °C -4.7 °C 1000.6 hPa WNW 9.7 km/h 9.7 km/h 69% 0 mm 0 W/m2
21:18 0.4 °C -4.7 °C 1000.6 hPa West 9.7 km/h 12.9 km/h 69% 0 mm 0 W/m2
21:24 0.3 °C -4.5 °C 1000.6 hPa West 9.7 km/h 19.3 km/h 70% 0 mm 0 W/m2
21:29 0.3 °C -4.6 °C 1000.6 hPa WSW 11.3 km/h 11.3 km/h 70% 0 mm 0 W/m2
21:36 0.2 °C -4.4 °C 1000.6 hPa West 8 km/h 11.3 km/h 71% 0 mm 0 W/m2
21:42 0.2 °C -4.5 °C 1000.6 hPa NNW 8 km/h 12.9 km/h 71% 0 mm 0 W/m2
21:48 0.1 °C -4.3 °C 1000.9 hPa West 9.7 km/h 17.7 km/h 72% 0 mm 0 W/m2
21:53 0.1 °C -4.2 °C 1000.9 hPa West 9.7 km/h 17.7 km/h 73% 0 mm 0 W/m2
22:00 0 °C -4.3 °C 1000.6 hPa WNW 8 km/h 8 km/h 73% 0 mm 0 W/m2
22:06 0 °C -4.4 °C 1000.9 hPa WNW 9.7 km/h 11.3 km/h 72% 0 mm 0 W/m2
22:18 0.1 °C -4.4 °C 1000.6 hPa NW 8 km/h 14.5 km/h 72% 0 mm 0 W/m2
22:24 0 °C -4.6 °C 1000.6 hPa WSW 6.4 km/h 8 km/h 71% 0 mm 0 W/m2
22:30 0.1 °C -4.8 °C 1000.6 hPa West 6.4 km/h 9.7 km/h 70% 0 mm 0 W/m2
22:34 0 °C -4.8 °C 1000.6 hPa West 6.4 km/h 9.7 km/h 70% 0 mm 0 W/m2
22:39 0 °C -4.8 °C 1000.6 hPa WNW 4.8 km/h 6.4 km/h 70% 0 mm 0 W/m2
22:46 0.1 °C -4.9 °C 1000.6 hPa WSW 6.4 km/h 14.5 km/h 69% 0 mm 0 W/m2
22:52 0.1 °C -4.9 °C 1000.6 hPa WSW 8 km/h 14.5 km/h 69% 0 mm 0 W/m2
22:58 0.1 °C -5.1 °C 1000.6 hPa WNW 6.4 km/h 14.5 km/h 68% 0 mm 0 W/m2
23:04 0.1 °C -5.1 °C 1000.6 hPa WNW 6.4 km/h 6.4 km/h 68% 0 mm 0 W/m2
23:09 0.2 °C -5.2 °C 1000.6 hPa West 6.4 km/h 9.7 km/h 67% 0 mm 0 W/m2
23:16 0.2 °C -5.2 °C 1000.6 hPa WNW 8 km/h 9.7 km/h 67% 0 mm 0 W/m2
23:22 0.2 °C -5.2 °C 1000.6 hPa WSW 8 km/h 12.9 km/h 67% 0 mm 0 W/m2
23:28 0.2 °C -5.2 °C 1000.6 hPa West 8 km/h 16.1 km/h 67% 0 mm 0 W/m2
23:34 0.2 °C -5.2 °C 1000.6 hPa WNW 8 km/h 8 km/h 67% 0 mm 0 W/m2
23:40 0.2 °C -5.2 °C 1000.6 hPa WNW 6.4 km/h 6.4 km/h 67% 0 mm 0 W/m2
23:45 0.1 °C -5.1 °C 1000.6 hPa WNW 6.4 km/h 9.7 km/h 68% 0 mm 0 W/m2
23:52 0.1 °C -5.2 °C 1000.6 hPa SSW 6.4 km/h 6.4 km/h 68% 0 mm 0 W/m2
23:58 0 °C -5.2 °C 1000.6 hPa WSW 6.4 km/h 6.4 km/h 68% 0 mm 0 W/m2
Country Meadow, Clay, NY, USA
Compliments of Weather Underground - 2 mb